sensor_id;sensor_type;location;lat;lon;timestamp;P1;durP1;ratioP1;P2;durP2;ratioP2
6205;SDS011;3136;48.788;9.772;2022-07-23T00:02:06;7.77;;;6.97;;
6205;SDS011;3136;48.788;9.772;2022-07-23T00:04:32;10.50;;;6.20;;
6205;SDS011;3136;48.788;9.772;2022-07-23T00:06:58;8.23;;;6.43;;
6205;SDS011;3136;48.788;9.772;2022-07-23T00:09:24;8.07;;;6.47;;
6205;SDS011;3136;48.788;9.772;2022-07-23T00:11:49;7.43;;;6.73;;
6205;SDS011;3136;48.788;9.772;2022-07-23T00:14:15;8.90;;;7.03;;
6205;SDS011;3136;48.788;9.772;2022-07-23T00:16:41;10.17;;;6.90;;
6205;SDS011;3136;48.788;9.772;2022-07-23T00:19:06;7.53;;;6.77;;
6205;SDS011;3136;48.788;9.772;2022-07-23T00:21:32;9.83;;;7.03;;
6205;SDS011;3136;48.788;9.772;2022-07-23T00:23:57;11.00;;;7.03;;
6205;SDS011;3136;48.788;9.772;2022-07-23T00:26:23;7.67;;;6.97;;
6205;SDS011;3136;48.788;9.772;2022-07-23T00:28:49;9.07;;;7.00;;
6205;SDS011;3136;48.788;9.772;2022-07-23T00:31:14;8.37;;;7.43;;
6205;SDS011;3136;48.788;9.772;2022-07-23T00:33:40;8.47;;;7.13;;
6205;SDS011;3136;48.788;9.772;2022-07-23T00:36:06;8.57;;;7.50;;
6205;SDS011;3136;48.788;9.772;2022-07-23T00:38:31;20.63;;;7.80;;
6205;SDS011;3136;48.788;9.772;2022-07-23T00:40:57;7.93;;;7.10;;
6205;SDS011;3136;48.788;9.772;2022-07-23T00:43:23;9.23;;;8.20;;
6205;SDS011;3136;48.788;9.772;2022-07-23T00:45:49;9.00;;;7.57;;
6205;SDS011;3136;48.788;9.772;2022-07-23T00:48:15;10.67;;;7.47;;
6205;SDS011;3136;48.788;9.772;2022-07-23T00:50:41;9.43;;;7.67;;
6205;SDS011;3136;48.788;9.772;2022-07-23T00:53:08;9.53;;;7.60;;
6205;SDS011;3136;48.788;9.772;2022-07-23T00:55:34;9.13;;;8.20;;
6205;SDS011;3136;48.788;9.772;2022-07-23T00:57:59;9.80;;;7.63;;
6205;SDS011;3136;48.788;9.772;2022-07-23T01:00:27;8.30;;;7.50;;
6205;SDS011;3136;48.788;9.772;2022-07-23T01:02:53;8.77;;;7.87;;
6205;SDS011;3136;48.788;9.772;2022-07-23T01:05:19;7.90;;;7.13;;
6205;SDS011;3136;48.788;9.772;2022-07-23T01:07:47;10.10;;;7.47;;
6205;SDS011;3136;48.788;9.772;2022-07-23T01:10:14;9.40;;;7.33;;
6205;SDS011;3136;48.788;9.772;2022-07-23T01:13:08;9.73;;;7.20;;
6205;SDS011;3136;48.788;9.772;2022-07-23T01:15:35;8.50;;;7.50;;
6205;SDS011;3136;48.788;9.772;2022-07-23T01:18:02;8.60;;;7.77;;
6205;SDS011;3136;48.788;9.772;2022-07-23T01:20:29;13.50;;;7.50;;
6205;SDS011;3136;48.788;9.772;2022-07-23T01:22:55;8.37;;;7.30;;
6205;SDS011;3136;48.788;9.772;2022-07-23T01:25:20;9.17;;;7.23;;
6205;SDS011;3136;48.788;9.772;2022-07-23T01:27:46;7.93;;;7.10;;
6205;SDS011;3136;48.788;9.772;2022-07-23T01:30:12;8.37;;;6.70;;
6205;SDS011;3136;48.788;9.772;2022-07-23T01:32:39;8.70;;;6.80;;
6205;SDS011;3136;48.788;9.772;2022-07-23T01:35:05;8.13;;;7.30;;
6205;SDS011;3136;48.788;9.772;2022-07-23T01:37:32;8.00;;;7.30;;
6205;SDS011;3136;48.788;9.772;2022-07-23T01:39:57;8.77;;;7.10;;
6205;SDS011;3136;48.788;9.772;2022-07-23T01:42:23;8.17;;;6.60;;
6205;SDS011;3136;48.788;9.772;2022-07-23T01:44:49;7.50;;;6.63;;
6205;SDS011;3136;48.788;9.772;2022-07-23T01:47:15;7.50;;;6.80;;
6205;SDS011;3136;48.788;9.772;2022-07-23T01:49:41;7.77;;;7.00;;
6205;SDS011;3136;48.788;9.772;2022-07-23T01:52:06;8.17;;;7.40;;
6205;SDS011;3136;48.788;9.772;2022-07-23T01:54:35;8.40;;;7.60;;
6205;SDS011;3136;48.788;9.772;2022-07-23T01:57:02;7.80;;;7.00;;
6205;SDS011;3136;48.788;9.772;2022-07-23T01:59:28;8.57;;;7.00;;
6205;SDS011;3136;48.788;9.772;2022-07-23T02:01:54;7.80;;;7.10;;
6205;SDS011;3136;48.788;9.772;2022-07-23T02:04:20;7.00;;;6.40;;
6205;SDS011;3136;48.788;9.772;2022-07-23T02:06:46;8.93;;;6.43;;
6205;SDS011;3136;48.788;9.772;2022-07-23T02:09:12;8.07;;;7.27;;
6205;SDS011;3136;48.788;9.772;2022-07-23T02:11:38;6.90;;;6.20;;
6205;SDS011;3136;48.788;9.772;2022-07-23T02:14:04;8.43;;;6.77;;
6205;SDS011;3136;48.788;9.772;2022-07-23T02:16:30;8.40;;;7.17;;
6205;SDS011;3136;48.788;9.772;2022-07-23T02:18:55;10.17;;;8.20;;
6205;SDS011;3136;48.788;9.772;2022-07-23T02:21:21;8.90;;;7.60;;
6205;SDS011;3136;48.788;9.772;2022-07-23T02:23:46;9.27;;;7.50;;
6205;SDS011;3136;48.788;9.772;2022-07-23T02:26:12;7.77;;;7.03;;
6205;SDS011;3136;48.788;9.772;2022-07-23T02:28:38;9.53;;;7.13;;
6205;SDS011;3136;48.788;9.772;2022-07-23T02:31:03;8.67;;;7.40;;
6205;SDS011;3136;48.788;9.772;2022-07-23T02:33:30;7.87;;;6.77;;
6205;SDS011;3136;48.788;9.772;2022-07-23T02:35:56;7.73;;;7.03;;
6205;SDS011;3136;48.788;9.772;2022-07-23T02:38:21;7.60;;;6.90;;
6205;SDS011;3136;48.788;9.772;2022-07-23T02:40:47;8.47;;;7.53;;
6205;SDS011;3136;48.788;9.772;2022-07-23T02:43:12;8.67;;;7.77;;
6205;SDS011;3136;48.788;9.772;2022-07-23T02:45:38;8.70;;;7.80;;
6205;SDS011;3136;48.788;9.772;2022-07-23T02:48:03;8.70;;;7.07;;
6205;SDS011;3136;48.788;9.772;2022-07-23T02:50:29;8.77;;;7.83;;
6205;SDS011;3136;48.788;9.772;2022-07-23T02:52:55;8.53;;;7.03;;
6205;SDS011;3136;48.788;9.772;2022-07-23T02:55:21;11.07;;;7.90;;
6205;SDS011;3136;48.788;9.772;2022-07-23T02:57:46;9.40;;;7.97;;
6205;SDS011;3136;48.788;9.772;2022-07-23T03:00:12;8.23;;;7.30;;
6205;SDS011;3136;48.788;9.772;2022-07-23T03:02:38;8.30;;;7.50;;
6205;SDS011;3136;48.788;9.772;2022-07-23T03:05:03;8.20;;;7.30;;
6205;SDS011;3136;48.788;9.772;2022-07-23T03:07:29;9.23;;;7.40;;
6205;SDS011;3136;48.788;9.772;2022-07-23T03:09:55;8.40;;;7.60;;
6205;SDS011;3136;48.788;9.772;2022-07-23T03:12:20;8.33;;;7.17;;
6205;SDS011;3136;48.788;9.772;2022-07-23T03:14:46;9.87;;;7.70;;
6205;SDS011;3136;48.788;9.772;2022-07-23T03:17:12;8.70;;;7.67;;
6205;SDS011;3136;48.788;9.772;2022-07-23T03:19:37;8.03;;;7.23;;
6205;SDS011;3136;48.788;9.772;2022-07-23T03:22:03;8.60;;;7.70;;
6205;SDS011;3136;48.788;9.772;2022-07-23T03:24:29;9.30;;;7.43;;
6205;SDS011;3136;48.788;9.772;2022-07-23T03:27:13;8.40;;;7.60;;
6205;SDS011;3136;48.788;9.772;2022-07-23T03:29:39;8.17;;;7.37;;
6205;SDS011;3136;48.788;9.772;2022-07-23T03:32:04;12.20;;;8.33;;
6205;SDS011;3136;48.788;9.772;2022-07-23T03:34:30;8.70;;;7.80;;
6205;SDS011;3136;48.788;9.772;2022-07-23T03:36:56;9.10;;;7.83;;
6205;SDS011;3136;48.788;9.772;2022-07-23T03:39:21;8.77;;;7.67;;
6205;SDS011;3136;48.788;9.772;2022-07-23T03:41:47;10.60;;;7.47;;
6205;SDS011;3136;48.788;9.772;2022-07-23T03:44:13;8.57;;;7.77;;
6205;SDS011;3136;48.788;9.772;2022-07-23T03:46:38;7.97;;;7.10;;
6205;SDS011;3136;48.788;9.772;2022-07-23T03:49:04;8.93;;;7.83;;
6205;SDS011;3136;48.788;9.772;2022-07-23T03:51:29;8.03;;;7.23;;
6205;SDS011;3136;48.788;9.772;2022-07-23T03:53:55;8.93;;;7.57;;
6205;SDS011;3136;48.788;9.772;2022-07-23T03:56:20;8.20;;;7.20;;
6205;SDS011;3136;48.788;9.772;2022-07-23T03:58:46;8.20;;;7.47;;
6205;SDS011;3136;48.788;9.772;2022-07-23T04:01:12;8.33;;;7.43;;
6205;SDS011;3136;48.788;9.772;2022-07-23T04:03:38;7.83;;;7.03;;
6205;SDS011;3136;48.788;9.772;2022-07-23T04:06:03;8.17;;;7.13;;
6205;SDS011;3136;48.788;9.772;2022-07-23T04:08:29;7.70;;;6.93;;
6205;SDS011;3136;48.788;9.772;2022-07-23T04:10:54;8.97;;;6.93;;
6205;SDS011;3136;48.788;9.772;2022-07-23T04:13:20;8.27;;;7.40;;
6205;SDS011;3136;48.788;9.772;2022-07-23T04:15:46;8.43;;;7.63;;
6205;SDS011;3136;48.788;9.772;2022-07-23T04:18:11;9.33;;;7.60;;
6205;SDS011;3136;48.788;9.772;2022-07-23T04:20:37;9.27;;;7.57;;
6205;SDS011;3136;48.788;9.772;2022-07-23T04:23:03;8.03;;;7.27;;
6205;SDS011;3136;48.788;9.772;2022-07-23T04:25:28;9.10;;;7.43;;
6205;SDS011;3136;48.788;9.772;2022-07-23T04:27:54;9.33;;;7.10;;
6205;SDS011;3136;48.788;9.772;2022-07-23T04:30:19;7.60;;;6.80;;
6205;SDS011;3136;48.788;9.772;2022-07-23T04:32:45;9.43;;;6.77;;
6205;SDS011;3136;48.788;9.772;2022-07-23T04:35:11;8.53;;;6.83;;
6205;SDS011;3136;48.788;9.772;2022-07-23T04:37:36;10.67;;;6.47;;
6205;SDS011;3136;48.788;9.772;2022-07-23T04:40:02;6.90;;;6.20;;
6205;SDS011;3136;48.788;9.772;2022-07-23T04:42:28;6.97;;;6.23;;
6205;SDS011;3136;48.788;9.772;2022-07-23T04:44:53;7.47;;;6.27;;
6205;SDS011;3136;48.788;9.772;2022-07-23T04:47:19;7.23;;;6.00;;
6205;SDS011;3136;48.788;9.772;2022-07-23T04:49:44;7.63;;;6.83;;
6205;SDS011;3136;48.788;9.772;2022-07-23T04:52:10;8.27;;;6.63;;
6205;SDS011;3136;48.788;9.772;2022-07-23T04:54:36;9.07;;;6.10;;
6205;SDS011;3136;48.788;9.772;2022-07-23T04:57:01;8.40;;;6.30;;
6205;SDS011;3136;48.788;9.772;2022-07-23T04:59:27;6.87;;;6.27;;
6205;SDS011;3136;48.788;9.772;2022-07-23T05:01:52;7.40;;;6.53;;
6205;SDS011;3136;48.788;9.772;2022-07-23T05:04:18;6.50;;;5.90;;
6205;SDS011;3136;48.788;9.772;2022-07-23T05:06:43;7.50;;;6.10;;
6205;SDS011;3136;48.788;9.772;2022-07-23T05:09:09;6.60;;;5.90;;
6205;SDS011;3136;48.788;9.772;2022-07-23T05:11:35;7.73;;;5.60;;
6205;SDS011;3136;48.788;9.772;2022-07-23T05:14:00;8.60;;;6.50;;
6205;SDS011;3136;48.788;9.772;2022-07-23T05:16:26;6.90;;;6.20;;
6205;SDS011;3136;48.788;9.772;2022-07-23T05:18:51;6.50;;;5.87;;
6205;SDS011;3136;48.788;9.772;2022-07-23T05:21:17;6.57;;;5.97;;
6205;SDS011;3136;48.788;9.772;2022-07-23T05:23:43;6.87;;;5.50;;
6205;SDS011;3136;48.788;9.772;2022-07-23T05:26:08;7.97;;;6.10;;
6205;SDS011;3136;48.788;9.772;2022-07-23T05:28:34;6.57;;;5.87;;
6205;SDS011;3136;48.788;9.772;2022-07-23T05:30:59;7.00;;;6.10;;
6205;SDS011;3136;48.788;9.772;2022-07-23T05:33:25;8.13;;;5.80;;
6205;SDS011;3136;48.788;9.772;2022-07-23T05:35:51;6.37;;;5.67;;
6205;SDS011;3136;48.788;9.772;2022-07-23T05:38:16;9.40;;;5.47;;
6205;SDS011;3136;48.788;9.772;2022-07-23T05:40:42;6.40;;;5.23;;
6205;SDS011;3136;48.788;9.772;2022-07-23T05:43:07;5.93;;;5.33;;
6205;SDS011;3136;48.788;9.772;2022-07-23T05:45:33;5.90;;;5.27;;
6205;SDS011;3136;48.788;9.772;2022-07-23T05:47:58;12.60;;;5.13;;
6205;SDS011;3136;48.788;9.772;2022-07-23T05:50:24;6.83;;;5.07;;
6205;SDS011;3136;48.788;9.772;2022-07-23T05:52:49;7.13;;;5.37;;
6205;SDS011;3136;48.788;9.772;2022-07-23T05:55:15;6.37;;;5.20;;
6205;SDS011;3136;48.788;9.772;2022-07-23T05:57:41;6.07;;;4.87;;
6205;SDS011;3136;48.788;9.772;2022-07-23T06:00:07;7.70;;;4.70;;
6205;SDS011;3136;48.788;9.772;2022-07-23T06:02:35;6.63;;;4.90;;
6205;SDS011;3136;48.788;9.772;2022-07-23T06:05:01;5.23;;;4.67;;
6205;SDS011;3136;48.788;9.772;2022-07-23T06:07:27;5.53;;;4.50;;
6205;SDS011;3136;48.788;9.772;2022-07-23T06:09:53;7.03;;;4.90;;
6205;SDS011;3136;48.788;9.772;2022-07-23T06:12:18;5.43;;;4.60;;
6205;SDS011;3136;48.788;9.772;2022-07-23T06:14:44;6.43;;;4.50;;
6205;SDS011;3136;48.788;9.772;2022-07-23T06:17:09;5.00;;;4.60;;
6205;SDS011;3136;48.788;9.772;2022-07-23T06:19:35;5.07;;;4.27;;
6205;SDS011;3136;48.788;9.772;2022-07-23T06:22:01;8.17;;;4.80;;
6205;SDS011;3136;48.788;9.772;2022-07-23T06:24:27;4.93;;;4.43;;
6205;SDS011;3136;48.788;9.772;2022-07-23T06:26:53;6.47;;;4.83;;
6205;SDS011;3136;48.788;9.772;2022-07-23T06:29:18;6.33;;;5.07;;
6205;SDS011;3136;48.788;9.772;2022-07-23T06:31:44;6.80;;;5.07;;
6205;SDS011;3136;48.788;9.772;2022-07-23T06:34:10;6.47;;;4.67;;
6205;SDS011;3136;48.788;9.772;2022-07-23T06:36:36;5.30;;;4.80;;
6205;SDS011;3136;48.788;9.772;2022-07-23T06:39:01;5.30;;;4.80;;
6205;SDS011;3136;48.788;9.772;2022-07-23T06:41:27;6.00;;;4.47;;
6205;SDS011;3136;48.788;9.772;2022-07-23T06:43:53;5.30;;;4.80;;
6205;SDS011;3136;48.788;9.772;2022-07-23T06:46:18;5.80;;;4.77;;
6205;SDS011;3136;48.788;9.772;2022-07-23T06:48:46;7.20;;;4.77;;
6205;SDS011;3136;48.788;9.772;2022-07-23T06:51:11;5.37;;;4.87;;
6205;SDS011;3136;48.788;9.772;2022-07-23T06:53:37;5.10;;;4.60;;
6205;SDS011;3136;48.788;9.772;2022-07-23T06:56:02;5.10;;;4.70;;
6205;SDS011;3136;48.788;9.772;2022-07-23T06:58:28;5.90;;;5.30;;
6205;SDS011;3136;48.788;9.772;2022-07-23T07:00:54;7.87;;;5.13;;
6205;SDS011;3136;48.788;9.772;2022-07-23T07:03:21;6.73;;;4.80;;
6205;SDS011;3136;48.788;9.772;2022-07-23T07:05:47;5.97;;;5.07;;
6205;SDS011;3136;48.788;9.772;2022-07-23T07:08:13;6.60;;;4.77;;
6205;SDS011;3136;48.788;9.772;2022-07-23T07:10:38;6.23;;;5.10;;
6205;SDS011;3136;48.788;9.772;2022-07-23T07:13:04;8.60;;;4.80;;
6205;SDS011;3136;48.788;9.772;2022-07-23T07:15:29;5.40;;;4.90;;
6205;SDS011;3136;48.788;9.772;2022-07-23T07:17:55;5.43;;;4.93;;
6205;SDS011;3136;48.788;9.772;2022-07-23T07:20:20;5.40;;;4.77;;
6205;SDS011;3136;48.788;9.772;2022-07-23T07:22:46;5.40;;;4.83;;
6205;SDS011;3136;48.788;9.772;2022-07-23T07:25:12;7.33;;;4.80;;
6205;SDS011;3136;48.788;9.772;2022-07-23T07:27:37;5.73;;;4.93;;
6205;SDS011;3136;48.788;9.772;2022-07-23T07:30:03;5.30;;;4.80;;
6205;SDS011;3136;48.788;9.772;2022-07-23T07:32:30;6.70;;;4.87;;
6205;SDS011;3136;48.788;9.772;2022-07-23T07:34:57;6.57;;;5.30;;
6205;SDS011;3136;48.788;9.772;2022-07-23T07:37:23;5.47;;;4.97;;
6205;SDS011;3136;48.788;9.772;2022-07-23T07:39:48;6.10;;;4.67;;
6205;SDS011;3136;48.788;9.772;2022-07-23T07:42:14;5.13;;;4.63;;
6205;SDS011;3136;48.788;9.772;2022-07-23T07:44:40;6.30;;;5.13;;
6205;SDS011;3136;48.788;9.772;2022-07-23T07:47:05;4.90;;;4.40;;
6205;SDS011;3136;48.788;9.772;2022-07-23T07:49:31;5.27;;;4.67;;
6205;SDS011;3136;48.788;9.772;2022-07-23T07:51:57;4.70;;;4.30;;
6205;SDS011;3136;48.788;9.772;2022-07-23T07:54:22;6.40;;;4.57;;
6205;SDS011;3136;48.788;9.772;2022-07-23T07:56:48;5.47;;;4.97;;
6205;SDS011;3136;48.788;9.772;2022-07-23T07:59:13;5.70;;;4.63;;
6205;SDS011;3136;48.788;9.772;2022-07-23T08:01:39;5.00;;;4.50;;
6205;SDS011;3136;48.788;9.772;2022-07-23T08:04:05;5.20;;;4.70;;
6205;SDS011;3136;48.788;9.772;2022-07-23T08:06:31;5.20;;;4.70;;
6205;SDS011;3136;48.788;9.772;2022-07-23T08:08:56;6.60;;;5.53;;
6205;SDS011;3136;48.788;9.772;2022-07-23T08:11:22;6.13;;;5.50;;
6205;SDS011;3136;48.788;9.772;2022-07-23T08:13:47;6.97;;;5.80;;
6205;SDS011;3136;48.788;9.772;2022-07-23T08:16:13;6.93;;;5.37;;
6205;SDS011;3136;48.788;9.772;2022-07-23T08:18:39;5.73;;;5.13;;
6205;SDS011;3136;48.788;9.772;2022-07-23T08:21:04;5.77;;;5.20;;
6205;SDS011;3136;48.788;9.772;2022-07-23T08:23:30;7.33;;;5.10;;
6205;SDS011;3136;48.788;9.772;2022-07-23T08:25:56;5.50;;;4.70;;
6205;SDS011;3136;48.788;9.772;2022-07-23T08:28:24;5.10;;;4.60;;
6205;SDS011;3136;48.788;9.772;2022-07-23T08:30:50;5.57;;;4.60;;
6205;SDS011;3136;48.788;9.772;2022-07-23T08:33:16;6.50;;;4.67;;
6205;SDS011;3136;48.788;9.772;2022-07-23T08:35:47;6.27;;;4.80;;
6205;SDS011;3136;48.788;9.772;2022-07-23T08:38:15;6.87;;;4.60;;
6205;SDS011;3136;48.788;9.772;2022-07-23T08:40:46;5.83;;;4.93;;
6205;SDS011;3136;48.788;9.772;2022-07-23T08:43:20;5.23;;;4.73;;
6205;SDS011;3136;48.788;9.772;2022-07-23T08:45:48;6.30;;;4.90;;
6205;SDS011;3136;48.788;9.772;2022-07-23T08:48:16;10.73;;;5.00;;
6205;SDS011;3136;48.788;9.772;2022-07-23T08:50:50;9.73;;;5.20;;
6205;SDS011;3136;48.788;9.772;2022-07-23T08:53:21;6.20;;;4.77;;
6205;SDS011;3136;48.788;9.772;2022-07-23T08:55:48;6.17;;;5.20;;
6205;SDS011;3136;48.788;9.772;2022-07-23T08:58:18;6.33;;;4.50;;
6205;SDS011;3136;48.788;9.772;2022-07-23T09:00:45;6.17;;;5.17;;
6205;SDS011;3136;48.788;9.772;2022-07-23T09:03:15;7.20;;;4.73;;
6205;SDS011;3136;48.788;9.772;2022-07-23T09:05:43;6.47;;;4.90;;
6205;SDS011;3136;48.788;9.772;2022-07-23T09:08:10;6.47;;;4.77;;
6205;SDS011;3136;48.788;9.772;2022-07-23T09:10:44;5.57;;;4.70;;
6205;SDS011;3136;48.788;9.772;2022-07-23T09:13:31;5.67;;;5.07;;
6205;SDS011;3136;48.788;9.772;2022-07-23T09:16:03;5.07;;;4.57;;
6205;SDS011;3136;48.788;9.772;2022-07-23T09:21:11;6.87;;;4.73;;
6205;SDS011;3136;48.788;9.772;2022-07-23T09:23:38;5.17;;;4.67;;
6205;SDS011;3136;48.788;9.772;2022-07-23T09:26:16;5.87;;;5.27;;
6205;SDS011;3136;48.788;9.772;2022-07-23T09:28:53;5.47;;;4.50;;
6205;SDS011;3136;48.788;9.772;2022-07-23T09:31:24;4.70;;;4.30;;
6205;SDS011;3136;48.788;9.772;2022-07-23T09:33:50;4.97;;;4.57;;
6205;SDS011;3136;48.788;9.772;2022-07-23T09:36:30;6.30;;;4.73;;
6205;SDS011;3136;48.788;9.772;2022-07-23T09:38:55;4.87;;;4.43;;
6205;SDS011;3136;48.788;9.772;2022-07-23T09:41:21;5.13;;;4.63;;
6205;SDS011;3136;48.788;9.772;2022-07-23T09:43:50;6.10;;;4.43;;
6205;SDS011;3136;48.788;9.772;2022-07-23T09:46:24;5.07;;;4.40;;
6205;SDS011;3136;48.788;9.772;2022-07-23T09:48:55;5.50;;;4.20;;
6205;SDS011;3136;48.788;9.772;2022-07-23T09:51:22;5.20;;;4.70;;
6205;SDS011;3136;48.788;9.772;2022-07-23T09:54:01;6.27;;;4.70;;
6205;SDS011;3136;48.788;9.772;2022-07-23T09:56:27;5.20;;;4.70;;
6205;SDS011;3136;48.788;9.772;2022-07-23T09:58:54;4.97;;;4.47;;
6205;SDS011;3136;48.788;9.772;2022-07-23T10:01:34;4.97;;;4.37;;
6205;SDS011;3136;48.788;9.772;2022-07-23T10:04:00;5.60;;;4.20;;
6205;SDS011;3136;48.788;9.772;2022-07-23T10:06:26;6.43;;;4.63;;
6205;SDS011;3136;48.788;9.772;2022-07-23T10:08:53;6.37;;;4.27;;
6205;SDS011;3136;48.788;9.772;2022-07-23T10:11:24;5.77;;;4.50;;
6205;SDS011;3136;48.788;9.772;2022-07-23T10:13:52;5.13;;;4.43;;
6205;SDS011;3136;48.788;9.772;2022-07-23T10:16:24;6.20;;;4.73;;
6205;SDS011;3136;48.788;9.772;2022-07-23T10:18:51;5.00;;;4.50;;
6205;SDS011;3136;48.788;9.772;2022-07-23T10:21:18;7.53;;;4.60;;
6205;SDS011;3136;48.788;9.772;2022-07-23T10:27:02;5.83;;;4.20;;
6205;SDS011;3136;48.788;9.772;2022-07-23T10:37:45;5.67;;;4.87;;
6205;SDS011;3136;48.788;9.772;2022-07-23T10:40:18;5.17;;;3.90;;
6205;SDS011;3136;48.788;9.772;2022-07-23T10:42:51;6.07;;;4.53;;
6205;SDS011;3136;48.788;9.772;2022-07-23T10:50:43;7.47;;;4.20;;
6205;SDS011;3136;48.788;9.772;2022-07-23T10:53:29;4.25;;;3.85;;
6205;SDS011;3136;48.788;9.772;2022-07-23T10:56:14;5.68;;;3.80;;
6205;SDS011;3136;48.788;9.772;2022-07-23T10:58:47;4.57;;;3.92;;
6205;SDS011;3136;48.788;9.772;2022-07-23T11:01:35;4.32;;;3.60;;
6205;SDS011;3136;48.788;9.772;2022-07-23T11:04:02;4.30;;;3.90;;
6205;SDS011;3136;48.788;9.772;2022-07-23T11:09:23;4.20;;;3.80;;
6205;SDS011;3136;48.788;9.772;2022-07-23T11:15:02;4.60;;;4.20;;
6205;SDS011;3136;48.788;9.772;2022-07-23T11:20:16;5.22;;;3.83;;
6205;SDS011;3136;48.788;9.772;2022-07-23T11:25:10;4.97;;;3.95;;
6205;SDS011;3136;48.788;9.772;2022-07-23T11:27:45;6.78;;;3.90;;
6205;SDS011;3136;48.788;9.772;2022-07-23T11:30:37;4.78;;;4.15;;
6205;SDS011;3136;48.788;9.772;2022-07-23T11:35:38;5.00;;;4.13;;
6205;SDS011;3136;48.788;9.772;2022-07-23T11:40:38;4.75;;;4.35;;
6205;SDS011;3136;48.788;9.772;2022-07-23T11:43:05;5.05;;;4.25;;
6205;SDS011;3136;48.788;9.772;2022-07-23T11:45:39;4.40;;;4.00;;
6205;SDS011;3136;48.788;9.772;2022-07-23T11:48:06;5.07;;;4.05;;
6205;SDS011;3136;48.788;9.772;2022-07-23T11:50:33;5.07;;;4.10;;
6205;SDS011;3136;48.788;9.772;2022-07-23T11:52:59;6.00;;;3.63;;
6205;SDS011;3136;48.788;9.772;2022-07-23T11:55:25;4.32;;;3.92;;
6205;SDS011;3136;48.788;9.772;2022-07-23T11:57:53;5.40;;;3.85;;
6205;SDS011;3136;48.788;9.772;2022-07-23T12:00:21;4.40;;;4.00;;
6205;SDS011;3136;48.788;9.772;2022-07-23T12:02:49;4.13;;;3.83;;
6205;SDS011;3136;48.788;9.772;2022-07-23T12:07:48;6.22;;;3.55;;
6205;SDS011;3136;48.788;9.772;2022-07-23T12:10:18;4.78;;;3.72;;
6205;SDS011;3136;48.788;9.772;2022-07-23T12:12:53;3.80;;;3.50;;
6205;SDS011;3136;48.788;9.772;2022-07-23T12:15:20;4.93;;;3.85;;
6205;SDS011;3136;48.788;9.772;2022-07-23T12:17:48;3.75;;;3.40;;
6205;SDS011;3136;48.788;9.772;2022-07-23T12:20:16;3.42;;;3.13;;
6205;SDS011;3136;48.788;9.772;2022-07-23T12:22:45;3.85;;;3.53;;
6205;SDS011;3136;48.788;9.772;2022-07-23T12:25:13;6.28;;;3.60;;
6205;SDS011;3136;48.788;9.772;2022-07-23T12:27:41;5.03;;;3.60;;
6205;SDS011;3136;48.788;9.772;2022-07-23T12:30:18;3.70;;;3.40;;
6205;SDS011;3136;48.788;9.772;2022-07-23T12:32:47;4.82;;;3.70;;
6205;SDS011;3136;48.788;9.772;2022-07-23T12:35:14;4.57;;;3.88;;
6205;SDS011;3136;48.788;9.772;2022-07-23T12:37:42;3.55;;;3.30;;
6205;SDS011;3136;48.788;9.772;2022-07-23T12:40:23;4.07;;;3.67;;
6205;SDS011;3136;48.788;9.772;2022-07-23T12:42:52;7.13;;;4.00;;
6205;SDS011;3136;48.788;9.772;2022-07-23T12:45:41;5.03;;;3.67;;
6205;SDS011;3136;48.788;9.772;2022-07-23T12:50:48;5.28;;;3.97;;
6205;SDS011;3136;48.788;9.772;2022-07-23T12:53:29;3.83;;;3.53;;
6205;SDS011;3136;48.788;9.772;2022-07-23T12:55:58;6.07;;;3.78;;
6205;SDS011;3136;48.788;9.772;2022-07-23T12:58:24;4.68;;;3.80;;
6205;SDS011;3136;48.788;9.772;2022-07-23T13:03:27;3.78;;;3.45;;
6205;SDS011;3136;48.788;9.772;2022-07-23T13:05:56;7.20;;;3.38;;
6205;SDS011;3136;48.788;9.772;2022-07-23T13:08:22;4.30;;;3.58;;
6205;SDS011;3136;48.788;9.772;2022-07-23T13:10:48;5.22;;;3.60;;
6205;SDS011;3136;48.788;9.772;2022-07-23T13:13:16;4.32;;;3.92;;
6205;SDS011;3136;48.788;9.772;2022-07-23T13:15:44;4.13;;;3.70;;
6205;SDS011;3136;48.788;9.772;2022-07-23T13:18:10;4.00;;;3.60;;
6205;SDS011;3136;48.788;9.772;2022-07-23T13:20:35;4.20;;;3.90;;
6205;SDS011;3136;48.788;9.772;2022-07-23T13:23:03;4.05;;;3.67;;
6205;SDS011;3136;48.788;9.772;2022-07-23T13:25:30;4.70;;;4.00;;
6205;SDS011;3136;48.788;9.772;2022-07-23T13:27:55;6.88;;;4.15;;
6205;SDS011;3136;48.788;9.772;2022-07-23T13:30:21;7.60;;;4.07;;
6205;SDS011;3136;48.788;9.772;2022-07-23T13:32:47;7.20;;;3.47;;
6205;SDS011;3136;48.788;9.772;2022-07-23T13:35:13;4.85;;;4.00;;
6205;SDS011;3136;48.788;9.772;2022-07-23T13:37:39;4.80;;;3.60;;
6205;SDS011;3136;48.788;9.772;2022-07-23T13:40:05;4.82;;;3.83;;
6205;SDS011;3136;48.788;9.772;2022-07-23T13:42:31;17.92;;;4.35;;
6205;SDS011;3136;48.788;9.772;2022-07-23T13:44:57;4.00;;;3.70;;
6205;SDS011;3136;48.788;9.772;2022-07-23T13:47:22;4.47;;;3.70;;
6205;SDS011;3136;48.788;9.772;2022-07-23T13:49:48;8.20;;;3.83;;
6205;SDS011;3136;48.788;9.772;2022-07-23T13:52:14;4.35;;;3.90;;
6205;SDS011;3136;48.788;9.772;2022-07-23T13:54:40;3.97;;;3.50;;
6205;SDS011;3136;48.788;9.772;2022-07-23T13:57:05;5.07;;;4.10;;
6205;SDS011;3136;48.788;9.772;2022-07-23T13:59:33;4.50;;;4.10;;
6205;SDS011;3136;48.788;9.772;2022-07-23T14:01:59;4.35;;;3.95;;
6205;SDS011;3136;48.788;9.772;2022-07-23T14:04:26;4.32;;;3.92;;
6205;SDS011;3136;48.788;9.772;2022-07-23T14:06:52;4.22;;;3.70;;
6205;SDS011;3136;48.788;9.772;2022-07-23T14:09:17;4.32;;;3.70;;
6205;SDS011;3136;48.788;9.772;2022-07-23T14:11:43;8.93;;;4.07;;
6205;SDS011;3136;48.788;9.772;2022-07-23T14:14:08;6.72;;;4.25;;
6205;SDS011;3136;48.788;9.772;2022-07-23T14:16:34;16.83;;;4.15;;
6205;SDS011;3136;48.788;9.772;2022-07-23T14:19:00;4.82;;;4.15;;
6205;SDS011;3136;48.788;9.772;2022-07-23T14:21:27;5.13;;;4.63;;
6205;SDS011;3136;48.788;9.772;2022-07-23T14:23:52;7.47;;;4.30;;
6205;SDS011;3136;48.788;9.772;2022-07-23T14:26:18;4.60;;;4.20;;
6205;SDS011;3136;48.788;9.772;2022-07-23T14:28:44;4.60;;;4.20;;
6205;SDS011;3136;48.788;9.772;2022-07-23T14:31:09;7.65;;;4.28;;
6205;SDS011;3136;48.788;9.772;2022-07-23T14:33:35;4.65;;;4.10;;
6205;SDS011;3136;48.788;9.772;2022-07-23T14:36:01;4.85;;;4.13;;
6205;SDS011;3136;48.788;9.772;2022-07-23T14:38:27;6.03;;;4.60;;
6205;SDS011;3136;48.788;9.772;2022-07-23T14:40:55;4.55;;;4.15;;
6205;SDS011;3136;48.788;9.772;2022-07-23T14:43:23;4.60;;;4.18;;
6205;SDS011;3136;48.788;9.772;2022-07-23T14:45:49;4.50;;;4.05;;
6205;SDS011;3136;48.788;9.772;2022-07-23T14:48:14;5.47;;;3.80;;
6205;SDS011;3136;48.788;9.772;2022-07-23T14:50:40;5.95;;;4.07;;
6205;SDS011;3136;48.788;9.772;2022-07-23T14:53:06;11.43;;;4.70;;
6205;SDS011;3136;48.788;9.772;2022-07-23T14:55:32;11.15;;;4.90;;
6205;SDS011;3136;48.788;9.772;2022-07-23T14:57:59;17.77;;;5.20;;
6205;SDS011;3136;48.788;9.772;2022-07-23T15:00:24;6.35;;;4.40;;
6205;SDS011;3136;48.788;9.772;2022-07-23T15:02:51;4.82;;;4.30;;
6205;SDS011;3136;48.788;9.772;2022-07-23T15:05:17;4.70;;;4.28;;
6205;SDS011;3136;48.788;9.772;2022-07-23T15:07:42;5.32;;;4.50;;
6205;SDS011;3136;48.788;9.772;2022-07-23T15:10:08;6.65;;;4.70;;
6205;SDS011;3136;48.788;9.772;2022-07-23T15:12:33;5.43;;;4.72;;
6205;SDS011;3136;48.788;9.772;2022-07-23T15:14:59;5.68;;;4.80;;
6205;SDS011;3136;48.788;9.772;2022-07-23T15:17:24;20.05;;;5.55;;
6205;SDS011;3136;48.788;9.772;2022-07-23T15:19:50;5.05;;;4.45;;
6205;SDS011;3136;48.788;9.772;2022-07-23T15:22:16;9.75;;;4.70;;
6205;SDS011;3136;48.788;9.772;2022-07-23T15:24:42;5.10;;;4.47;;
6205;SDS011;3136;48.788;9.772;2022-07-23T15:27:08;5.72;;;4.22;;
6205;SDS011;3136;48.788;9.772;2022-07-23T15:29:34;5.10;;;4.57;;
6205;SDS011;3136;48.788;9.772;2022-07-23T15:31:59;5.32;;;4.80;;
6205;SDS011;3136;48.788;9.772;2022-07-23T15:34:25;5.05;;;4.55;;
6205;SDS011;3136;48.788;9.772;2022-07-23T15:36:52;6.13;;;5.30;;
6205;SDS011;3136;48.788;9.772;2022-07-23T15:39:18;5.57;;;4.70;;
6205;SDS011;3136;48.788;9.772;2022-07-23T15:41:43;5.88;;;4.78;;
6205;SDS011;3136;48.788;9.772;2022-07-23T15:44:09;6.20;;;4.82;;
6205;SDS011;3136;48.788;9.772;2022-07-23T15:46:35;6.80;;;5.45;;
6205;SDS011;3136;48.788;9.772;2022-07-23T15:49:01;5.50;;;4.95;;
6205;SDS011;3136;48.788;9.772;2022-07-23T15:51:27;5.57;;;5.07;;
6205;SDS011;3136;48.788;9.772;2022-07-23T15:53:53;5.15;;;4.75;;
6205;SDS011;3136;48.788;9.772;2022-07-23T15:56:19;6.80;;;5.10;;
6205;SDS011;3136;48.788;9.772;2022-07-23T15:58:45;6.00;;;4.85;;